Time;durP1;ratioP1;P1;durP2;ratioP2;P2;SDS_P1;SDS_P2;PMS_P1;PMS_P2;Temp;Humidity;BMP_temperature;BMP_pressure;BME280_temperature;BME280_humidity;BME280_pressure;Samples;Min_cycle;Max_cycle;Signal;HPM_P1;HPM_P2
2021/06/28 00:01:26;;;;;;;2.40;1.83;;;;;;;18.12;100.00;95864.72;5032730;28;20411;-76
2021/06/28 00:03:53;;;;;;;2.90;1.80;;;;;;;18.02;100.00;95867.38;5031787;28;20451;-76
2021/06/28 00:06:19;;;;;;;2.70;1.80;;;;;;;18.12;100.00;95870.78;5031408;28;20422;-76
2021/06/28 00:08:44;;;;;;;2.72;1.95;;;;;;;18.06;100.00;95862.69;5031705;28;20418;-76
2021/06/28 00:11:12;;;;;;;3.72;1.60;;;;;;;17.99;100.00;95856.34;5031684;28;20411;-76
2021/06/28 00:13:42;;;;;;;3.15;1.88;;;;;;;17.85;100.00;95862.84;5031306;28;20511;-76
2021/06/28 00:16:08;;;;;;;2.38;1.52;;;;;;;17.92;100.00;95860.50;5031088;28;20526;-76
2021/06/28 00:18:34;;;;;;;3.30;1.70;;;;;;;17.98;100.00;95849.44;5013692;28;20473;-76
2021/06/28 00:21:00;;;;;;;1.70;1.60;;;;;;;17.97;100.00;95848.59;5013672;28;20423;-76
2021/06/28 00:23:26;;;;;;;2.33;1.70;;;;;;;18.00;100.00;95842.28;5031265;28;20419;-76
2021/06/28 00:25:51;;;;;;;2.25;1.70;;;;;;;18.01;100.00;95839.50;5013449;28;20415;-76
2021/06/28 00:28:18;;;;;;;2.30;1.40;;;;;;;17.87;100.00;95839.94;5031257;28;20503;-76
2021/06/28 00:30:45;;;;;;;2.53;1.60;;;;;;;17.83;100.00;95843.78;5031417;28;20921;-76
2021/06/28 00:33:14;;;;;;;3.10;1.45;;;;;;;17.80;100.00;95844.09;5030308;28;21224;-76
2021/06/28 00:35:40;;;;;;;2.92;1.48;;;;;;;17.90;100.00;95840.47;5031002;28;20422;-76
2021/06/28 00:38:07;;;;;;;1.85;1.50;;;;;;;17.96;100.00;95823.38;5031216;28;20415;-76
2021/06/28 00:40:34;;;;;;;2.47;1.60;;;;;;;17.87;100.00;95821.59;5031158;28;20407;-76
2021/06/28 00:42:59;;;;;;;3.77;1.43;;;;;;;17.82;100.00;95822.00;5031455;28;20847;-76
2021/06/28 00:45:28;;;;;;;1.70;1.50;;;;;;;17.82;100.00;95834.28;5030759;28;20414;-76
2021/06/28 00:47:56;;;;;;;2.08;1.40;;;;;;;17.77;100.00;95826.84;5013170;28;20506;-76
2021/06/28 00:50:23;;;;;;;2.28;1.50;;;;;;;17.85;100.00;95828.78;5031017;28;20414;-76
2021/06/28 00:52:52;;;;;;;2.40;1.45;;;;;;;17.84;100.00;95825.31;5030503;28;20465;-76
2021/06/28 00:55:17;;;;;;;2.40;1.42;;;;;;;17.83;100.00;95823.66;5030616;28;20419;-76
2021/06/28 00:57:44;;;;;;;1.80;1.50;;;;;;;17.92;100.00;95823.81;5030944;28;20427;-76
2021/06/28 01:00:11;;;;;;;2.05;1.55;;;;;;;17.81;100.00;95816.91;5030895;28;20421;-76
2021/06/28 01:02:38;;;;;;;3.60;1.58;;;;;;;17.87;100.00;95808.47;5030891;28;20427;-76
2021/06/28 01:05:06;;;;;;;2.03;1.30;;;;;;;17.91;100.00;95799.41;5030698;28;20415;-76
2021/06/28 01:07:31;;;;;;;2.90;1.90;;;;;;;17.88;100.00;95794.44;5030786;28;20411;-76
2021/06/28 01:09:57;;;;;;;2.40;1.57;;;;;;;17.76;100.00;95796.38;5030745;28;20419;-76
2021/06/28 01:12:22;;;;;;;1.73;1.33;;;;;;;17.81;100.00;95788.09;5012897;28;20451;-76
2021/06/28 01:14:48;;;;;;;4.00;1.75;;;;;;;17.75;100.00;95786.84;5012672;28;20427;-76
2021/06/28 01:17:14;;;;;;;2.40;1.45;;;;;;;17.81;100.00;95801.19;5030308;28;20450;-76
2021/06/28 01:19:49;;;;;;;2.88;1.27;;;;;;;17.65;100.00;95796.50;5030920;28;20462;-76
2021/06/28 01:22:18;;;;;;;7.18;1.77;;;;;;;17.62;100.00;95789.75;5030670;28;20962;-76
2021/06/28 01:24:45;;;;;;;2.07;1.47;;;;;;;17.42;100.00;95783.66;5012661;28;20500;-76
2021/06/28 01:27:10;;;;;;;2.60;1.75;;;;;;;17.41;100.00;95794.28;5030849;28;20426;-76
2021/06/28 01:29:36;;;;;;;4.40;1.90;;;;;;;17.23;100.00;95785.47;5012670;28;20455;-76
2021/06/28 01:32:02;;;;;;;3.70;1.70;;;;;;;17.29;100.00;95785.75;5012751;28;20493;-76
2021/06/28 01:34:28;;;;;;;2.20;1.80;;;;;;;17.28;100.00;95772.78;5030309;28;20429;-76
2021/06/28 01:36:53;;;;;;;4.87;1.40;;;;;;;17.29;100.00;95777.91;5030140;28;20419;-76
2021/06/28 01:39:18;;;;;;;3.33;1.87;;;;;;;17.40;100.00;95769.91;5030398;28;20425;-76
2021/06/28 01:41:45;;;;;;;1.50;1.30;;;;;;;17.38;100.00;95769.19;5012729;28;20450;-76
2021/06/28 01:44:10;;;;;;;3.80;1.90;;;;;;;17.48;100.00;95765.78;5030181;28;20414;-76
2021/06/28 01:46:36;;;;;;;2.27;1.60;;;;;;;17.62;100.00;95760.13;5012417;28;20498;-76
2021/06/28 01:49:01;;;;;;;2.30;1.50;;;;;;;17.66;100.00;95754.44;5030362;28;20426;-76
2021/06/28 01:51:27;;;;;;;3.07;1.43;;;;;;;17.82;100.00;95747.84;5030350;28;20422;-76
2021/06/28 01:53:52;;;;;;;2.80;1.80;;;;;;;17.80;100.00;95755.03;5030137;28;20434;-76
2021/06/28 01:56:18;;;;;;;1.83;1.67;;;;;;;17.75;100.00;95746.72;5030031;28;20465;-76
2021/06/28 01:58:45;;;;;;;1.92;1.50;;;;;;;17.67;100.00;95747.41;5030219;28;20469;-76
2021/06/28 02:01:10;;;;;;;3.08;1.60;;;;;;;17.80;100.00;95749.78;5030252;28;20437;-76
2021/06/28 02:03:38;;;;;;;1.40;1.30;;;;;;;17.82;100.00;95758.31;5030098;28;20407;-76
2021/06/28 02:06:04;;;;;;;2.57;1.60;;;;;;;17.60;100.00;95762.03;5015445;28;21007;-76
2021/06/28 02:08:32;;;;;;;3.40;1.50;;;;;;;17.73;100.00;95772.25;5033973;28;20469;-76
2021/06/28 02:11:02;;;;;;;2.70;1.30;;;;;;;17.76;100.00;95774.59;5016401;28;20446;-76
2021/06/28 02:13:31;;;;;;;4.15;1.90;;;;;;;17.67;100.00;95777.03;5015944;28;20430;-76
2021/06/28 02:15:58;;;;;;;2.53;1.98;;;;;;;17.57;100.00;95773.59;5033471;28;20438;-76
2021/06/28 02:18:24;;;;;;;2.33;1.58;;;;;;;17.60;100.00;95773.34;5016013;28;20827;-76
2021/06/28 02:20:50;;;;;;;2.63;1.73;;;;;;;17.56;100.00;95782.44;5033769;28;20414;-76
2021/06/28 02:23:25;;;;;;;4.25;1.90;;;;;;;17.60;100.00;95775.94;5016168;28;20418;-76
2021/06/28 02:25:56;;;;;;;5.15;1.52;;;;;;;17.64;100.00;95779.94;5015499;28;20427;-76
2021/06/28 02:28:22;;;;;;;2.42;1.77;;;;;;;17.73;100.00;95775.69;5033546;28;20501;-76
2021/06/28 02:30:48;;;;;;;3.67;1.70;;;;;;;17.67;100.00;95766.56;5033835;28;20841;-76
2021/06/28 02:33:15;;;;;;;3.08;1.80;;;;;;;17.67;100.00;95758.72;5033342;28;20434;-75
2021/06/28 02:35:41;;;;;;;1.60;1.42;;;;;;;17.71;100.00;95763.69;5015389;28;20415;-76
2021/06/28 02:38:06;;;;;;;3.53;1.70;;;;;;;17.69;100.00;95762.97;5033377;28;20750;-76
2021/06/28 02:40:32;;;;;;;2.03;1.50;;;;;;;17.70;100.00;95762.03;5015635;28;20445;-76
2021/06/28 02:42:57;;;;;;;2.10;1.40;;;;;;;17.73;100.00;95759.13;5033114;28;20453;-76
2021/06/28 02:45:23;;;;;;;2.50;1.60;;;;;;;17.77;100.00;95758.75;5015242;28;20514;-76
2021/06/28 02:47:48;;;;;;;2.33;1.60;;;;;;;17.80;100.00;95753.22;5033229;28;20502;-76
2021/06/28 02:50:16;;;;;;;3.50;1.90;;;;;;;17.71;100.00;95755.81;5015499;28;20974;-76
2021/06/28 02:52:42;;;;;;;3.30;1.70;;;;;;;17.78;100.00;95762.19;5033071;28;20431;-76
2021/06/28 02:55:10;;;;;;;2.40;1.65;;;;;;;17.81;100.00;95756.66;5015151;28;20480;-75
2021/06/28 02:57:36;;;;;;;1.77;1.60;;;;;;;17.82;100.00;95742.59;5033226;28;20832;-76
2021/06/28 03:00:04;;;;;;;11.32;1.73;;;;;;;17.93;100.00;95757.31;5033472;28;20526;-76
2021/06/28 03:02:29;;;;;;;2.30;1.70;;;;;;;18.30;99.73;95749.47;5015521;28;20442;-76
2021/06/28 03:04:54;;;;;;;2.33;1.70;;;;;;;18.66;98.59;95736.47;5032810;28;20411;-76
2021/06/28 03:07:21;;;;;;;5.47;2.10;;;;;;;18.53;98.92;95727.13;5032565;28;20414;-76
2021/06/28 03:09:46;;;;;;;3.75;1.80;;;;;;;18.40;99.33;95723.22;5032800;28;20419;-76
2021/06/28 03:12:12;;;;;;;1.60;1.50;;;;;;;17.94;100.00;95712.63;5032769;28;20411;-76
2021/06/28 03:14:38;;;;;;;2.47;1.70;;;;;;;17.46;100.00;95712.72;5014696;28;20506;-76
2021/06/28 03:17:03;;;;;;;2.47;1.60;;;;;;;17.54;100.00;95715.44;5032173;28;20403;-76
2021/06/28 03:19:28;;;;;;;2.10;1.70;;;;;;;17.39;100.00;95701.97;5032675;28;20423;-76
2021/06/28 03:21:54;;;;;;;3.28;1.90;;;;;;;17.14;100.00;95698.97;5033105;28;20411;-76
2021/06/28 03:24:21;;;;;;;2.47;1.70;;;;;;;17.33;100.00;95705.16;5032200;28;20433;-75
2021/06/28 03:26:46;;;;;;;2.40;1.73;;;;;;;17.41;100.00;95713.97;5032139;28;20425;-76
2021/06/28 03:29:11;;;;;;;3.20;1.50;;;;;;;17.37;100.00;95727.47;5014626;28;20415;-76
2021/06/28 03:31:37;;;;;;;2.80;1.83;;;;;;;17.11;100.00;95720.19;5032465;28;20914;-76
2021/06/28 03:34:02;;;;;;;4.57;2.10;;;;;;;16.90;100.00;95722.09;5032173;28;20481;-76
2021/06/28 03:36:27;;;;;;;2.97;1.77;;;;;;;16.72;100.00;95723.69;5014166;28;20480;-76
2021/06/28 03:38:53;;;;;;;2.85;1.80;;;;;;;16.68;100.00;95707.44;5014386;28;20478;-75
2021/06/28 03:41:20;;;;;;;2.07;1.60;;;;;;;16.80;100.00;95695.94;5014453;28;20420;-76
2021/06/28 03:43:46;;;;;;;2.65;1.85;;;;;;;16.93;100.00;95699.09;5014272;28;20521;-75
2021/06/28 03:46:12;;;;;;;2.57;1.67;;;;;;;17.04;100.00;95702.53;5032180;28;20481;-76
2021/06/28 03:48:37;;;;;;;1.73;1.60;;;;;;;17.11;100.00;95701.84;5014331;28;20423;-75
2021/06/28 03:51:03;;;;;;;1.43;1.30;;;;;;;17.22;100.00;95690.41;5032477;28;20920;-75
2021/06/28 03:53:29;;;;;;;7.93;1.50;;;;;;;17.75;100.00;95702.19;5014106;28;20780;-75
2021/06/28 03:55:54;;;;;;;3.00;1.70;;;;;;;17.59;100.00;95702.78;5013920;28;20417;-76
2021/06/28 03:58:21;;;;;;;2.45;1.60;;;;;;;17.30;100.00;95685.31;5014151;28;20828;-76
2021/06/28 04:00:46;;;;;;;2.60;1.50;;;;;;;17.04;100.00;95673.75;5032052;28;20414;-76
2021/06/28 04:03:12;;;;;;;2.43;1.60;;;;;;;16.90;100.00;95675.81;5031752;28;20407;-76
2021/06/28 04:05:38;;;;;;;3.30;1.90;;;;;;;16.56;100.00;95671.91;5013661;28;20506;-74
2021/06/28 04:08:04;;;;;;;2.58;1.75;;;;;;;16.51;100.00;95674.13;5031646;28;20473;-75
2021/06/28 04:10:30;;;;;;;4.00;1.90;;;;;;;16.42;100.00;95692.22;5013906;28;20411;-75
2021/06/28 04:12:55;;;;;;;2.40;1.70;;;;;;;16.33;100.00;95708.72;5013796;28;20453;-74
2021/06/28 04:15:22;;;;;;;2.47;1.70;;;;;;;16.27;100.00;95719.69;5013526;28;20419;-74
2021/06/28 04:17:50;;;;;;;3.47;1.70;;;;;;;16.33;100.00;95723.59;5013821;28;20430;-75
2021/06/28 04:20:18;;;;;;;2.75;1.63;;;;;;;16.55;100.00;95739.06;5031442;28;20434;-74
2021/06/28 04:22:43;;;;;;;5.18;1.60;;;;;;;16.68;100.00;95733.56;5031261;28;20465;-74
2021/06/28 04:25:11;;;;;;;2.20;1.63;;;;;;;16.79;100.00;95730.06;5031039;28;20446;-75
2021/06/28 04:27:37;;;;;;;2.53;1.83;;;;;;;16.94;100.00;95728.69;5030843;28;20415;-75
2021/06/28 04:30:04;;;;;;;2.85;2.10;;;;;;;17.07;100.00;95744.97;5031254;28;20417;-74
2021/06/28 04:32:31;;;;;;;1.98;1.63;;;;;;;17.10;100.00;95744.69;5031199;28;20408;-74
2021/06/28 04:34:58;;;;;;;3.22;2.00;;;;;;;17.13;100.00;95747.03;5031416;28;20454;-74
2021/06/28 04:37:24;;;;;;;6.30;1.77;;;;;;;17.25;100.00;95752.16;5031030;28;20418;-75
2021/06/28 04:39:49;;;;;;;2.35;1.63;;;;;;;17.32;100.00;95751.44;5031172;28;20502;-74
2021/06/28 04:42:15;;;;;;;2.60;1.80;;;;;;;17.41;100.00;95755.84;5031062;28;20793;-75
2021/06/28 04:44:40;;;;;;;2.47;1.77;;;;;;;17.51;100.00;95749.78;5030983;28;20415;-75
2021/06/28 04:47:05;;;;;;;5.07;1.80;;;;;;;17.64;100.00;95759.00;5030730;28;20437;-75
2021/06/28 04:49:32;;;;;;;5.97;1.98;;;;;;;17.72;100.00;95758.28;5013167;28;20461;-75
2021/06/28 04:51:58;;;;;;;2.97;1.90;;;;;;;17.73;100.00;95761.75;5030871;28;20449;-75
2021/06/28 04:54:23;;;;;;;4.03;2.07;;;;;;;17.87;100.00;95761.31;5012998;28;20873;-75
2021/06/28 04:56:48;;;;;;;3.53;1.97;;;;;;;18.02;100.00;95753.84;5030605;28;20847;-75
2021/06/28 04:59:16;;;;;;;2.47;1.87;;;;;;;18.16;100.00;95757.81;5013176;28;20921;-75
2021/06/28 05:01:42;;;;;;;3.30;1.95;;;;;;;18.26;100.00;95756.81;5030734;28;20840;-75
2021/06/28 05:04:07;;;;;;;3.33;1.80;;;;;;;18.40;100.00;95755.50;5030665;28;20509;-74
2021/06/28 05:06:34;;;;;;;2.27;1.60;;;;;;;18.53;100.00;95749.94;5030402;28;20509;-74
2021/06/28 05:08:59;;;;;;;3.97;2.10;;;;;;;18.64;100.00;95747.09;5030732;28;20904;-74
2021/06/28 05:11:25;;;;;;;3.30;1.83;;;;;;;18.55;100.00;95751.44;5030572;28;20414;-75
2021/06/28 05:13:50;;;;;;;2.60;2.00;;;;;;;18.69;98.74;95754.53;5030505;28;20431;-75
2021/06/28 05:16:15;;;;;;;3.00;1.70;;;;;;;18.82;99.25;95758.50;5030351;28;20506;-74
2021/06/28 05:18:41;;;;;;;2.67;1.60;;;;;;;18.90;96.95;95752.50;5031073;28;20410;-74
2021/06/28 05:21:06;;;;;;;1.90;1.37;;;;;;;19.00;96.30;95755.91;5030744;28;20419;-74
2021/06/28 05:23:33;;;;;;;2.55;1.70;;;;;;;18.94;94.95;95763.53;5030446;28;20442;-74
2021/06/28 05:25:58;;;;;;;1.77;1.63;;;;;;;18.76;95.99;95753.84;5030270;28;20418;-75
2021/06/28 05:28:24;;;;;;;4.40;1.70;;;;;;;18.70;95.72;95750.97;5030851;28;20419;-74
2021/06/28 05:30:50;;;;;;;2.73;1.80;;;;;;;18.61;96.63;95756.13;5030656;28;20600;-75
2021/06/28 05:33:16;;;;;;;2.58;1.73;;;;;;;18.58;98.14;95753.78;5012643;28;20454;-74
2021/06/28 05:35:41;;;;;;;3.53;1.80;;;;;;;18.65;98.66;95734.81;5030255;28;20813;-74
2021/06/28 05:38:07;;;;;;;3.90;1.70;;;;;;;18.68;97.57;95732.72;5012841;28;20419;-74
2021/06/28 05:40:33;;;;;;;1.92;1.50;;;;;;;18.83;98.34;95733.06;5015363;28;20418;-75
2021/06/28 05:42:59;;;;;;;1.73;1.48;;;;;;;18.84;96.94;95740.81;5034398;28;20413;-75
2021/06/28 05:45:25;;;;;;;2.80;1.85;;;;;;;18.87;96.81;95744.94;5016442;28;20419;-75
2021/06/28 05:47:50;;;;;;;1.87;1.50;;;;;;;18.90;96.93;95742.00;5034293;28;20844;-75
2021/06/28 05:50:18;;;;;;;4.60;1.90;;;;;;;18.95;96.11;95739.78;5034501;28;20915;-74
2021/06/28 05:52:44;;;;;;;1.60;1.50;;;;;;;18.97;95.27;95743.06;5016427;28;20417;-75
2021/06/28 05:55:11;;;;;;;4.88;1.67;;;;;;;19.10;94.83;95738.28;5016180;28;20919;-74
2021/06/28 05:57:37;;;;;;;1.77;1.40;;;;;;;19.46;94.90;95732.19;5019188;28;20437;-74
2021/06/28 06:00:06;;;;;;;2.60;1.60;;;;;;;19.77;93.20;95730.00;5041368;28;20847;-75
2021/06/28 06:02:32;;;;;;;2.65;1.63;;;;;;;19.86;90.18;95726.44;5024573;28;20430;-77
2021/06/28 06:04:57;;;;;;;1.95;1.45;;;;;;;20.32;93.12;95729.69;5037038;28;20411;-76
2021/06/28 06:07:22;;;;;;;3.30;1.87;;;;;;;20.47;91.53;95724.63;5028077;28;20411;-79
2021/06/28 06:09:48;;;;;;;1.83;1.60;;;;;;;20.58;88.55;95719.13;5033216;28;20410;-79
2021/06/28 06:12:14;;;;;;;2.70;1.67;;;;;;;20.56;85.51;95731.59;5038831;28;20766;-80
2021/06/28 06:14:40;;;;;;;2.95;1.73;;;;;;;20.79;85.66;95719.50;5021168;28;20423;-77
2021/06/28 06:17:06;;;;;;;2.30;1.73;;;;;;;20.92;83.10;95721.69;5038338;28;20414;-80
2021/06/28 06:19:31;;;;;;;1.73;1.40;;;;;;;21.02;82.82;95726.78;5022203;28;20488;-81
2021/06/28 06:21:57;;;;;;;1.83;1.30;;;;;;;21.10;81.17;95725.97;5021749;28;20426;-80
2021/06/28 06:24:27;;;;;;;1.48;1.38;;;;;;;20.95;82.16;95725.78;5020509;28;20423;-79
2021/06/28 06:26:53;;;;;;;2.50;1.67;;;;;;;21.10;82.97;95724.19;5036653;28;20843;-79
2021/06/28 06:29:18;;;;;;;1.80;1.45;;;;;;;20.60;80.89;95721.59;5038430;28;20410;-78
2021/06/28 06:31:45;;;;;;;4.60;1.40;;;;;;;20.56;82.75;95730.78;5036134;28;20773;-78
2021/06/28 06:34:10;;;;;;;2.65;1.77;;;;;;;20.61;84.92;95731.13;5034857;28;20431;-77
2021/06/28 06:36:35;;;;;;;2.28;1.75;;;;;;;20.52;82.90;95723.19;5033661;28;20498;-78
2021/06/28 06:39:01;;;;;;;1.87;1.37;;;;;;;20.65;83.20;95725.38;5035938;28;20493;-77
2021/06/28 06:41:26;;;;;;;1.57;1.47;;;;;;;20.72;81.28;95728.19;5035044;28;20418;-79
2021/06/28 06:43:52;;;;;;;2.47;1.20;;;;;;;20.85;80.71;95731.22;5035336;28;20399;-78
2021/06/28 06:46:17;;;;;;;2.97;1.73;;;;;;;20.80;82.17;95733.47;5018394;28;20521;-79
2021/06/28 06:48:44;;;;;;;2.80;1.80;;;;;;;20.94;83.28;95735.50;5018498;28;20470;-78
2021/06/28 06:51:09;;;;;;;2.50;1.80;;;;;;;21.44;82.08;95734.63;5034406;28;20498;-78
2021/06/28 06:53:35;;;;;;;4.70;1.73;;;;;;;21.84;81.35;95735.59;5024720;28;20950;-77
2021/06/28 06:56:05;;;;;;;1.80;1.60;;;;;;;22.13;77.12;95729.75;4995518;28;20472;-77
2021/06/28 06:58:31;;;;;;;3.10;1.70;;;;;;;22.37;77.50;95731.53;5019726;28;20433;-76
2021/06/28 07:00:56;;;;;;;2.17;1.60;;;;;;;22.50;73.87;95735.44;5033005;28;20415;-76
2021/06/28 07:03:22;;;;;;;2.63;1.47;;;;;;;22.84;78.70;95727.19;5032922;28;20887;-76
2021/06/28 07:05:48;;;;;;;3.93;1.83;;;;;;;23.17;74.87;95738.44;5032515;28;20461;-76
2021/06/28 07:08:15;;;;;;;3.17;1.42;;;;;;;23.38;77.17;95730.69;5032846;28;20421;-75
2021/06/28 07:10:41;;;;;;;3.90;1.67;;;;;;;23.64;75.94;95732.16;5032754;28;20963;-75
2021/06/28 07:13:06;;;;;;;2.00;1.60;;;;;;;23.88;73.72;95739.91;5032738;28;20431;-75
2021/06/28 07:15:32;;;;;;;3.93;1.47;;;;;;;24.03;72.38;95752.31;5014471;28;20471;-75
2021/06/28 07:17:57;;;;;;;3.00;1.87;;;;;;;24.35;71.00;95751.16;5014967;28;20600;-80
2021/06/28 07:20:23;;;;;;;4.68;1.80;;;;;;;24.33;69.06;95754.00;5015387;28;20425;-75
2021/06/28 07:22:51;;;;;;;1.57;1.33;;;;;;;24.12;66.68;95754.72;5014788;28;20423;-75
2021/06/28 07:25:17;;;;;;;2.35;1.40;;;;;;;24.30;72.45;95756.19;5032224;28;20501;-75
2021/06/28 07:27:43;;;;;;;2.50;1.57;;;;;;;24.41;70.56;95761.06;5014543;28;20580;-75
2021/06/28 07:30:11;;;;;;;1.70;1.33;;;;;;;24.64;67.45;95758.31;5032431;28;20410;-75
2021/06/28 07:32:37;;;;;;;2.80;1.67;;;;;;;24.76;67.12;95762.13;5032267;28;20415;-75
2021/06/28 07:35:04;;;;;;;4.67;1.97;;;;;;;24.62;64.85;95765.63;5032238;28;20435;-75
2021/06/28 07:37:30;;;;;;;3.97;1.70;;;;;;;24.74;65.42;95763.34;5014284;28;20426;-75
2021/06/28 07:39:56;;;;;;;2.33;1.80;;;;;;;24.43;65.93;95768.81;5032455;28;20407;-75
2021/06/28 07:42:24;;;;;;;2.60;1.50;;;;;;;24.01;62.83;95767.56;5032198;28;20415;-75
2021/06/28 07:44:49;;;;;;;2.25;1.50;;;;;;;24.31;65.35;95777.19;5032420;28;20419;-77
2021/06/28 07:47:14;;;;;;;2.10;1.70;;;;;;;24.24;64.50;95772.78;5014124;28;20766;-76
2021/06/28 07:49:40;;;;;;;2.33;1.50;;;;;;;24.08;64.10;95777.25;5032180;28;20426;-76
2021/06/28 07:52:09;;;;;;;2.42;1.50;;;;;;;24.68;66.14;95778.13;5032007;28;20438;-77
2021/06/28 07:54:35;;;;;;;2.85;1.33;;;;;;;24.89;60.76;95781.88;5031880;28;20423;-76
2021/06/28 07:57:02;;;;;;;1.30;1.10;;;;;;;25.46;56.22;95778.47;5031515;28;20411;-77
2021/06/28 07:59:27;;;;;;;3.10;1.42;;;;;;;25.72;62.47;95778.72;5014884;28;20754;-77
2021/06/28 08:01:53;;;;;;;10.20;1.60;;;;;;;25.81;55.06;95774.16;5031140;28;20414;-77
2021/06/28 08:04:18;;;;;;;2.07;1.40;;;;;;;25.71;55.15;95777.06;5031543;28;20411;-77
2021/06/28 08:06:44;;;;;;;1.42;1.33;;;;;;;25.81;57.29;95769.66;5013783;28;20425;-77
2021/06/28 08:09:09;;;;;;;1.77;1.40;;;;;;;25.46;56.09;95771.31;5014028;28;20924;-78
2021/06/28 08:11:36;;;;;;;1.52;1.40;;;;;;;25.39;56.18;95774.91;5032157;28;20415;-77
2021/06/28 08:14:04;;;;;;;1.70;1.20;;;;;;;24.84;57.86;95777.94;5031415;28;20486;-76
2021/06/28 08:16:30;;;;;;;2.80;1.25;;;;;;;25.56;58.50;95776.31;5031264;28;20839;-76
2021/06/28 08:18:56;;;;;;;2.00;1.40;;;;;;;25.55;59.81;95770.19;5031739;28;20499;-76
2021/06/28 08:21:21;;;;;;;2.37;1.43;;;;;;;25.64;59.17;95778.84;5013803;28;20423;-76
2021/06/28 08:23:47;;;;;;;1.70;1.20;;;;;;;25.19;59.46;95769.41;5014121;28;20426;-76
2021/06/28 08:26:13;;;;;;;1.75;1.23;;;;;;;25.20;60.45;95771.88;5013411;28;20502;-76
2021/06/28 08:28:39;;;;;;;1.73;1.52;;;;;;;25.53;60.13;95768.75;5013549;28;20423;-76
2021/06/28 08:31:06;;;;;;;1.67;1.48;;;;;;;25.55;58.74;95769.38;5031386;28;20426;-76
2021/06/28 08:33:32;;;;;;;6.22;1.50;;;;;;;24.74;57.82;95781.88;5031163;28;20769;-76
2021/06/28 08:35:58;;;;;;;1.73;1.50;;;;;;;25.10;61.46;95789.88;5013117;28;20485;-76
2021/06/28 08:38:23;;;;;;;3.70;1.50;;;;;;;24.96;62.61;95793.38;5031142;28;20793;-76
2021/06/28 08:40:49;;;;;;;2.20;1.73;;;;;;;24.89;59.71;95793.28;5031095;28;20444;-76
2021/06/28 08:43:15;;;;;;;1.98;1.58;;;;;;;24.87;59.55;95792.63;5031011;28;20419;-76
2021/06/28 08:45:43;;;;;;;3.28;1.35;;;;;;;25.47;63.04;95801.31;5013147;28;20462;-76
2021/06/28 08:48:10;;;;;;;1.80;1.58;;;;;;;25.00;60.05;95800.75;5013343;28;20474;-76
2021/06/28 08:50:37;;;;;;;2.55;1.60;;;;;;;25.33;61.71;95793.22;5013290;28;20984;-76
2021/06/28 08:53:03;;;;;;;1.65;1.30;;;;;;;25.43;56.44;95797.38;5030700;28;20446;-76
2021/06/28 08:55:30;;;;;;;2.13;1.42;;;;;;;25.85;59.07;95803.78;5030634;28;20458;-76
2021/06/28 08:57:55;;;;;;;3.78;1.60;;;;;;;26.14;57.31;95795.66;5032295;28;20450;-76
2021/06/28 09:00:21;;;;;;;2.30;1.37;;;;;;;26.33;58.71;95799.47;5034735;28;20419;-76
2021/06/28 09:02:54;;;;;;;1.65;1.42;;;;;;;26.42;58.98;95797.47;5033668;28;20893;-76
2021/06/28 09:05:22;;;;;;;2.33;1.52;;;;;;;26.37;57.99;95795.41;5030909;28;20418;-77
2021/06/28 09:07:47;;;;;;;1.75;1.42;;;;;;;26.63;57.61;95793.97;5030918;28;20419;-76
2021/06/28 09:10:32;;;;;;;3.10;1.43;;;;;;;26.72;57.69;95798.91;5030859;28;20765;-76
2021/06/28 09:12:57;;;;;;;2.38;1.60;;;;;;;26.69;55.99;95793.97;5012738;28;20805;-76
2021/06/28 09:15:32;;;;;;;2.08;1.30;;;;;;;26.42;53.80;95786.84;5030357;28;20426;-76
2021/06/28 09:18:13;;;;;;;2.38;1.48;;;;;;;26.33;53.50;95790.66;5013242;28;20481;-76
2021/06/28 09:20:41;;;;;;;1.98;1.40;;;;;;;26.36;54.82;95788.44;5030689;28;20415;-76
2021/06/28 09:23:16;;;;;;;3.30;1.40;;;;;;;26.39;53.57;95793.34;5030384;28;20940;-76
2021/06/28 09:25:41;;;;;;;2.70;1.42;;;;;;;26.30;53.11;95792.69;5030328;28;20418;-76
2021/06/28 09:28:07;;;;;;;3.13;1.50;;;;;;;26.31;53.37;95790.84;5012926;28;20419;-76
2021/06/28 09:30:36;;;;;;;2.63;1.55;;;;;;;26.60;57.89;95779.22;5012902;28;20418;-76
2021/06/28 09:33:02;;;;;;;2.63;1.50;;;;;;;26.85;55.13;95790.19;5030527;28;20415;-76
2021/06/28 09:35:33;;;;;;;2.05;1.55;;;;;;;26.64;55.26;95784.97;5012707;28;20477;-76
2021/06/28 09:38:06;;;;;;;2.97;1.55;;;;;;;26.95;55.09;95782.66;5012830;28;20423;-76
2021/06/28 09:40:32;;;;;;;1.98;1.77;;;;;;;26.99;53.95;95780.41;5012669;28;20419;-76
2021/06/28 09:42:58;;;;;;;3.25;1.83;;;;;;;27.14;57.69;95781.13;5012561;28;20430;-76
2021/06/28 09:45:24;;;;;;;2.50;1.60;;;;;;;27.00;52.86;95782.91;5030008;28;20415;-76
2021/06/28 09:47:50;;;;;;;2.17;1.60;;;;;;;26.90;55.04;95785.09;5012702;28;21006;-77
2021/06/28 09:50:19;;;;;;;3.20;1.70;;;;;;;26.80;52.70;95779.31;5030591;28;20860;-76
2021/06/28 09:52:49;;;;;;;2.85;1.60;;;;;;;25.78;53.95;95780.66;5030338;28;20411;-76
2021/06/28 09:55:19;;;;;;;2.53;1.67;;;;;;;25.53;56.33;95777.50;5029869;28;20446;-76
2021/06/28 09:58:09;;;;;;;3.65;1.80;;;;;;;26.63;58.76;95784.16;5030296;28;20414;-76
2021/06/28 10:00:36;;;;;;;2.55;2.00;;;;;;;26.82;56.29;95779.97;5030521;28;20909;-76
2021/06/28 10:03:04;;;;;;;3.15;1.50;;;;;;;27.11;54.10;95780.69;5030162;28;20418;-76
2021/06/28 10:05:35;;;;;;;3.03;1.80;;;;;;;27.27;54.31;95770.53;5029884;28;20486;-76
2021/06/28 10:08:01;;;;;;;5.93;1.98;;;;;;;26.51;55.73;95777.72;5012511;28;20774;-76
2021/06/28 10:10:28;;;;;;;3.50;1.70;;;;;;;26.74;56.15;95774.81;5030148;28;20422;-76
2021/06/28 10:13:03;;;;;;;2.22;1.65;;;;;;;26.71;59.02;95772.53;5030080;28;20429;-76
2021/06/28 10:15:31;;;;;;;2.33;1.70;;;;;;;26.77;60.19;95774.41;5029683;28;20518;-76
2021/06/28 10:17:56;;;;;;;3.00;1.60;;;;;;;26.24;56.29;95774.88;5030089;28;20443;-76
2021/06/28 10:20:23;;;;;;;2.03;1.80;;;;;;;26.69;56.14;95772.72;5012437;28;20458;-76
2021/06/28 10:22:51;;;;;;;4.40;1.65;;;;;;;26.81;53.50;95770.34;5029977;28;20418;-76
2021/06/28 10:25:18;;;;;;;2.90;1.50;;;;;;;26.95;55.66;95766.72;5030093;28;20414;-77
2021/06/28 10:27:46;;;;;;;3.53;1.73;;;;;;;27.13;58.21;95763.53;5033764;28;20490;-76
2021/06/28 10:30:14;;;;;;;3.10;1.73;;;;;;;27.00;54.38;95768.78;5033524;28;20415;-76
2021/06/28 10:32:40;;;;;;;3.35;2.15;;;;;;;27.33;58.25;95758.31;5033434;28;20907;-76
2021/06/28 10:35:11;;;;;;;2.95;1.65;;;;;;;27.06;53.15;95773.28;5033186;28;20457;-76
2021/06/28 10:37:41;;;;;;;2.20;1.60;;;;;;;26.45;52.27;95757.25;5033423;28;20411;-77
2021/06/28 10:40:09;;;;;;;2.17;1.77;;;;;;;26.48;56.49;95767.53;5033722;28;20438;-76
2021/06/28 10:42:38;;;;;;;5.30;1.70;;;;;;;26.54;55.24;95758.75;5033433;28;20419;-76
2021/06/28 10:45:07;;;;;;;3.42;1.90;;;;;;;26.29;53.97;95753.03;5033406;28;20426;-76
2021/06/28 10:47:33;;;;;;;2.30;1.73;;;;;;;27.02;56.38;95756.09;5033137;28;20458;-76
2021/06/28 10:49:58;;;;;;;2.17;1.47;;;;;;;27.01;53.42;95759.78;5033119;28;20455;-76
2021/06/28 10:52:46;;;;;;;7.72;1.80;;;;;;;27.35;56.09;95756.25;5033149;28;20411;-76
2021/06/28 10:55:38;;;;;;;2.65;1.80;;;;;;;26.53;52.10;95752.63;5015077;28;20420;-76
2021/06/28 10:58:23;;;;;;;2.27;1.70;;;;;;;26.98;55.56;95758.34;5015288;28;20423;-76
2021/06/28 11:00:52;;;;;;;3.00;1.73;;;;;;;27.41;52.72;95751.97;5033026;28;20415;-76
2021/06/28 11:03:35;;;;;;;2.85;1.60;;;;;;;26.64;50.73;95751.25;5015098;28;20812;-76
2021/06/28 11:06:22;;;;;;;2.35;1.45;;;;;;;26.10;51.51;95756.38;5032622;28;20443;-76
2021/06/28 11:09:06;;;;;;;2.17;1.63;;;;;;;25.76;50.86;95755.28;5031472;28;20423;-76
2021/06/28 11:11:56;;;;;;;4.10;1.80;;;;;;;26.29;52.24;95755.69;5015137;28;20427;-76
2021/06/28 11:14:42;;;;;;;4.50;1.70;;;;;;;26.83;52.01;95747.03;5016479;28;20508;-76
2021/06/28 11:17:11;;;;;;;4.20;1.80;;;;;;;27.21;51.69;95742.09;5012511;28;20612;-76
2021/06/28 11:19:52;;;;;;;3.55;1.80;;;;;;;27.38;52.85;95739.06;5013144;28;20794;-78
2021/06/28 11:22:41;;;;;;;2.92;1.50;;;;;;;27.47;51.31;95729.88;5012854;28;20413;-76
2021/06/28 11:25:16;;;;;;;2.17;1.53;;;;;;;27.47;49.64;95727.22;5012391;28;20429;-76
2021/06/28 11:27:44;;;;;;;3.80;1.80;;;;;;;27.80;52.16;95731.78;5012671;28;20576;-76
2021/06/28 11:30:25;;;;;;;5.10;1.83;;;;;;;27.48;51.49;95728.88;5012694;28;20922;-76